Latest Weather Observations for Cape Willoughby

IDS60801

Issued at 1:01 am CST Thursday 5 May 2016 (issued every 30 minutes, with the page automatically refreshed every 10 minutes)

About weather observations | Map of weather stations | Latest weather observations for SA | Other Formats
Station Details ID: 022803 Name: CAPE WILLOUGHBY Lat: -35.84 Lon: 138.13 Height: 55.0 m
Data from the previous 72 hours. | See also: Recent months at Cape Willoughby
Date/Time
CST
Temp
°C
App
Temp
°C
Dew
Point
Rel
Hum
%
Delta-T
°C
Wind Press
QNH
hPa
Press
MSL
hPa
Rain
since 9 am
mm
Dir
 
Spd
km/h
Gust
km/h
Spd
kts
Gust
kts
05/01:00am 16.2 11.4 12.9 81 1.8 NW 30 37 16 20 1013.4 1013.4 0.0
05/12:30am 16.3 11.6 13.2 82 1.7 NW 30 39 16 21 1013.6 1013.6 0.0
05/12:00am 16.1 11.0 13.0 82 1.7 NW 32 41 17 22 1013.8 1013.8 0.0
 
Date/Time
CST
Temp
°C
App
Temp
°C
Dew
Point
Rel
Hum
%
Delta-T
°C
Wind Press
QNH
hPa
Press
MSL
hPa
Rain
since 9 am
mm
Dir
 
Spd
km/h
Gust
km/h
Spd
kts
Gust
kts
04/11:30pm 16.2 10.4 13.9 86 1.3 NNW 37 50 20 27 1013.7 1013.7 0.0
04/11:00pm 16.7 12.5 13.6 82 1.8 NNW 28 39 15 21 1014.1 1014.1 0.0
04/10:30pm 16.5 12.0 13.8 84 1.5 NW 30 43 16 23 1014.3 1014.3 0.0
04/10:00pm 16.7 12.4 13.2 80 2.0 NW 28 39 15 21 1014.5 1014.5 0.0
04/09:30pm 16.5 12.0 13.8 84 1.5 NW 30 39 16 21 1014.6 1014.6 0.0
04/09:00pm 16.8 9.9 13.9 83 1.6 NNW 43 54 23 29 1014.2 1014.2 0.0
04/08:30pm 16.8 10.2 13.7 82 1.8 NNW 41 56 22 30 1014.2 1014.2 0.0
04/08:00pm 16.6 10.3 13.5 82 1.7 NNW 39 54 21 29 1014.2 1014.2 0.0
04/07:30pm 16.6 10.4 13.9 84 1.5 NNW 39 48 21 26 1014.3 1014.3 0.0
04/07:00pm 16.5 10.9 13.2 81 1.8 NNW 35 48 19 26 1014.2 1014.2 0.0
04/06:30pm 16.5 10.5 13.2 81 1.8 NNW 37 54 20 29 1014.0 1014.0 0.0
04/06:00pm 16.6 12.1 12.6 77 2.2 NW 28 39 15 21 1013.7 1013.7 0.0
04/05:30pm 16.6 11.9 12.0 74 2.5 NW 28 37 15 20 1013.6 1013.6 0.0
04/05:00pm 16.6 11.7 11.3 71 2.9 NW 28 35 15 19 1013.7 1013.7 0.0
04/04:30pm 16.8 10.7 10.6 67 3.3 NW 33 46 18 25 1013.5 1013.5 0.0
04/04:10pm 17.2 12.3 11.2 68 3.2 NW 28 46 15 25 1013.6 1013.6 0.0
04/04:00pm 17.1 10.8 10.9 67 3.3 NW 35 46 19 25 1013.5 1013.5 0.0
04/03:30pm 17.3 11.5 10.7 65 3.5 NW 32 44 17 24 1013.5 1013.5 0.0
04/03:00pm 17.1 11.1 10.9 67 3.3 NW 33 44 18 24 1013.7 1013.7 0.0
04/02:30pm 17.4 10.8 10.1 62 3.9 NW 35 48 19 26 1013.6 1013.6 0.0
04/02:00pm 17.8 10.9 10.2 61 4.1 NW 37 52 20 28 1013.8 1013.8 0.0
04/01:47pm 18.0 12.1 10.4 61 4.1 NW 32 50 17 27 1013.8 1013.8 0.0
04/01:30pm 17.9 12.1 10.8 63 3.8 NW 32 41 17 22 1014.0 1014.0 0.0
04/01:00pm 17.1 10.9 11.4 69 3.1 NNW 35 46 19 25 1014.2 1014.2 0.0
04/12:30pm 16.2 10.8 12.2 77 2.2 NNW 32 48 17 26 1014.7 1014.7 0.0
04/12:23pm 16.1 11.4 12.1 77 2.2 NNW 28 48 15 26 1014.9 1014.9 0.0
04/12:00pm 15.9 11.0 11.3 74 2.5 NNW 28 37 15 20 1015.4 1015.4 0.0
04/11:30am 16.4 10.8 12.2 76 2.3 NNW 33 43 18 23 1015.6 1015.6 0.0
04/11:21am 16.1 10.8 11.1 72 2.7 NNW 30 43 16 23 1015.5 1015.5 0.0
04/11:00am 16.3 12.2 8.5 60 4.0 NW 20 28 11 15 1015.9 1015.9 0.0
04/10:30am 15.8 11.9 8.5 62 3.7 NW 19 24 10 13 1016.2 1016.2 0.0
04/10:00am 15.6 12.9 9.1 65 3.3 WNW 13 26 7 14 1016.2 1016.2 0.0
04/09:30am 14.9 11.9 9.3 69 2.9 NW 15 19 8 10 1016.1 1016.1 0.0
04/09:00am 13.9 11.4 9.7 76 2.2 NW 13 15 7 8 1016.0 1016.0 0.8
04/08:30am 13.0 10.0 9.4 79 1.8 NW 15 19 8 10 1015.9 1015.9 0.8
04/08:00am 12.2 8.8 9.0 81 1.6 WNW 17 20 9 11 1015.5 1015.5 0.8
04/07:30am 11.2 7.1 8.6 84 1.3 WNW 20 22 11 12 1015.1 1015.1 0.8
04/07:00am 10.7 6.5 8.3 85 1.2 WNW 20 20 11 11 1014.8 1014.8 0.8
04/06:30am 11.0 6.1 8.4 84 1.3 WNW 24 26 13 14 1014.4 1014.4 0.8
04/06:00am 10.8 6.7 8.7 87 1.0 WNW 20 24 11 13 1014.1 1014.1 0.8
04/05:30am 10.8 6.8 8.9 88 0.9 WNW 20 22 11 12 1013.9 1013.9 0.8
04/05:00am 10.5 6.4 8.8 89 0.8 WNW 20 22 11 12 1013.6 1013.6 0.8
04/04:30am 10.8 6.9 8.7 87 1.0 WNW 19 20 10 11 1013.5 1013.5 0.8
04/04:00am 11.3 7.5 9.0 86 1.1 WNW 19 22 10 12 1013.5 1013.5 0.8
04/03:30am 11.5 7.5 9.1 85 1.2 WNW 20 24 11 13 1013.3 1013.3 0.8
04/03:00am 11.8 8.0 9.2 84 1.3 WNW 19 22 10 12 1013.2 1013.2 0.8
04/02:30am 12.1 7.8 9.3 83 1.4 W 22 30 12 16 1013.4 1013.4 0.8
04/02:00am 11.6 7.7 8.8 83 1.4 WNW 19 22 10 12 1013.0 1013.0 0.8
04/01:30am 11.8 7.3 8.6 81 1.6 W 22 28 12 15 1012.9 1012.9 0.8
04/01:00am 11.3 6.4 8.5 83 1.4 WNW 24 28 13 15 1012.5 1012.5 0.8
04/12:30am 11.3 6.5 8.7 84 1.3 WNW 24 30 13 16 1012.4 1012.4 0.8
04/12:00am 11.4 7.3 8.8 84 1.3 WNW 20 24 11 13 1012.8 1012.8 0.8
 
Date/Time
CST
Temp
°C
App
Temp
°C
Dew
Point
Rel
Hum
%
Delta-T
°C
Wind Press
QNH
hPa
Press
MSL
hPa
Rain
since 9 am
mm
Dir
 
Spd
km/h
Gust
km/h
Spd
kts
Gust
kts
03/11:30pm 11.5 7.5 8.9 84 1.3 WNW 20 24 11 13 1012.7 1012.7 0.8
03/11:00pm 11.3 7.5 8.9 85 1.2 WNW 19 20 10 11 1012.7 1012.7 0.8
03/10:30pm 12.0 8.2 9.0 82 1.5 W 19 24 10 13 1012.8 1012.8 0.8
03/10:00pm 12.2 8.2 9.2 82 1.5 W 20 26 11 14 1012.6 1012.6 0.8
03/09:30pm 12.2 8.2 9.0 81 1.6 W 20 28 11 15 1012.5 1012.5 0.8
03/09:00pm 12.3 8.3 9.0 80 1.7 W 20 24 11 13 1012.2 1012.2 0.8
03/08:30pm 12.3 8.5 9.1 81 1.6 W 19 22 10 12 1011.8 1011.8 0.8
03/08:00pm 12.5 8.7 9.1 80 1.7 W 19 24 10 13 1011.7 1011.7 0.8
03/07:30pm 12.6 8.9 9.6 82 1.5 WNW 19 24 10 13 1011.3 1011.3 0.8
03/07:00pm 12.4 9.5 9.6 83 1.4 W 15 20 8 11 1010.6 1010.6 0.8
03/06:30pm 13.0 8.9 10.2 83 1.5 W 22 32 12 17 1010.1 1010.0 0.8
03/06:00pm 12.8 8.3 10.2 84 1.3 W 24 30 13 16 1009.7 1009.6 0.8
03/05:36pm 13.4 6.3 10.8 84 1.4 WSW 39 54 21 29 1009.5 1009.4 0.4
03/05:30pm 13.9 7.4 10.5 80 1.8 WSW 35 54 19 29 1009.0 1008.9 0.4
03/05:00pm 15.1 10.2 8.3 64 3.4 W 24 35 13 19 1008.5 1008.4 0.4
03/04:30pm 16.0 9.2 7.7 58 4.2 W 33 46 18 25 1008.0 1007.9 0.4
03/04:14pm 16.2 9.2 8.4 60 4.0 WSW 35 54 19 29 1007.8 1007.7 0.4
03/04:00pm 15.6 8.6 8.4 62 3.7 W 35 52 19 28 1007.7 1007.6 0.4
03/03:43pm 15.6 9.8 9.3 66 3.3 W 30 52 16 28 1007.3 1007.2 0.4
03/03:30pm 15.6 10.6 11.0 74 2.5 W 28 39 15 21 1007.2 1007.1 0.4
03/03:00pm 14.6 10.2 11.7 83 1.6 WSW 26 37 14 20 1006.8 1006.7 0.4
03/02:30pm 13.8 8.4 12.2 90 0.9 WSW 32 43 17 23 1006.6 1006.5 0.4
03/02:07pm 14.9 8.6 12.2 84 1.5 WSW 37 59 20 32 1006.1 1006.0 0.0
03/02:00pm 15.0 9.2 11.6 80 1.8 WSW 33 48 18 26 1006.2 1006.1 0.0
03/01:30pm 15.2 10.2 12.3 83 1.6 WSW 30 44 16 24 1006.1 1006.0 0.0
03/01:00pm 14.3 9.1 12.9 91 0.8 WSW 32 41 17 22 1005.9 1005.8 0.0
03/12:32pm 14.3 8.9 12.3 88 1.1 W 32 57 17 31 1006.0 1005.9 0.0
03/12:30pm 14.6 9.8 12.8 89 1.0 W 30 41 16 22 1006.1 1006.0 0.0
03/12:00pm 15.3 9.7 12.2 82 1.7 W 33 46 18 25 1006.0 1005.9 0.0
03/11:30am 16.9 10.7 11.4 70 3.0 WSW 35 50 19 27 1005.8 1005.7 0.0
03/11:16am 16.1 8.8 11.5 74 2.5 W 41 59 22 32 1006.0 1005.9 0.0
03/11:00am 16.3 9.3 11.2 72 2.7 WSW 39 56 21 30 1005.7 1005.6 0.0
03/10:36am 17.1 9.4 10.2 64 3.7 W 41 59 22 32 1005.4 1005.3 0.0
03/10:30am 18.1 10.5 8.9 55 4.8 WNW 39 59 21 32 1005.1 1005.0 0.0
03/10:00am 18.1 11.3 9.2 56 4.7 W 35 52 19 28 1005.1 1005.0 0.0
03/09:30am 17.5 10.4 9.4 59 4.3 W 37 57 20 31 1004.7 1004.6 0.0
03/09:03am 16.7 9.3 11.2 70 3.0 W 41 61 22 33 1004.5 1004.4 0.0
03/09:00am 16.5 8.4 10.8 69 3.1 W 44 61 24 33 1004.4 1004.3 1.8
03/08:57am 16.4 8.9 10.9 70 2.9 W 41 61 22 33 1004.5 1004.4 1.8
03/08:30am 16.0 10.6 12.9 82 1.7 W 33 46 18 25 1004.3 1004.2 1.6
03/08:02am 15.8 11.7 13.8 88 1.1 WNW 28 52 15 28 1004.1 1004.0 1.6
03/08:00am 15.8 12.1 13.8 88 1.1 WNW 26 37 14 20 1004.1 1004.0 1.6
03/07:30am 15.9 11.6 14.4 91 0.9 WNW 30 39 16 21 1003.5 1003.4 1.6
03/07:14am 16.1 9.5 14.8 92 0.7 WNW 43 61 23 33 1003.1 1003.0 1.6
03/07:00am 16.2 8.7 14.9 92 0.8 NW 48 65 26 35 1002.7 1002.6 1.2
03/06:31am 16.4 10.0 14.4 88 1.1 NW 41 61 22 33 1002.3 1002.2 0.6
03/06:30am 16.4 10.1 14.6 89 1.0 NW 41 54 22 29 1002.4 1002.3 0.6
03/06:00am 16.2 7.7 14.2 88 1.1 NW 52 80 28 43 1002.4 1002.3 0.6
03/05:52am 16.3 8.1 14.1 87 1.3 NW 50 80 27 43 1002.3 1002.2 0.6
03/05:31am 16.8 10.2 13.7 82 1.8 NW 41 61 22 33 1002.6 1002.5 0.6
03/05:30am 16.7 10.1 13.8 83 1.7 NW 41 54 22 29 1002.7 1002.6 0.6
03/05:00am 16.6 9.0 13.7 83 1.6 NW 46 67 25 36 1002.9 1002.8 0.6
03/04:30am 16.8 9.9 13.9 83 1.7 NW 43 65 23 35 1002.9 1002.8 0.6
03/04:01am 16.8 9.2 13.7 82 1.8 NW 46 67 25 36 1002.7 1002.6 0.6
03/04:00am 16.8 9.2 13.7 82 1.8 NW 46 63 25 34 1002.9 1002.8 0.6
03/03:30am 16.7 9.0 13.2 80 2.0 NW 46 72 25 39 1003.0 1002.9 0.6
03/03:00am 16.9 9.2 13.4 80 2.0 NW 46 67 25 36 1003.4 1003.3 0.6
03/02:35am 17.1 9.0 13.2 78 2.2 NW 48 67 26 36 1003.7 1003.6 0.6
03/02:30am 17.1 8.6 13.2 78 2.2 NW 50 67 27 36 1003.8 1003.7 0.6
03/02:00am 17.0 8.2 13.3 79 2.1 NW 52 70 28 38 1004.2 1004.1 0.6
03/01:31am 16.9 7.6 13.2 79 2.1 NNW 54 74 29 40 1003.9 1003.8 0.6
03/01:30am 16.9 7.3 13.2 79 2.1 NNW 56 74 30 40 1003.9 1003.8 0.6
03/01:05am 16.8 7.2 13.3 80 2.0 NW 56 74 30 40 1004.0 1003.9 0.6
03/01:00am 16.8 7.0 13.3 80 2.0 NW 57 74 31 40 1004.2 1004.1 0.6
03/12:30am 16.9 7.3 13.4 80 2.0 NW 56 76 30 41 1004.8 1004.7 0.6
03/12:00am 16.8 8.5 13.7 82 1.8 NW 50 72 27 39 1005.5 1005.4 0.6
 
Date/Time
CST
Temp
°C
App
Temp
°C
Dew
Point
Rel
Hum
%
Delta-T
°C
Wind Press
QNH
hPa
Press
MSL
hPa
Rain
since 9 am
mm
Dir
 
Spd
km/h
Gust
km/h
Spd
kts
Gust
kts
02/11:30pm 17.0 7.8 13.3 79 2.1 NW 54 76 29 41 1006.0 1005.9 0.6
02/11:03pm 16.9 8.5 13.4 80 2.0 NW 50 69 27 37 1006.4 1006.3 0.6
02/11:00pm 16.8 8.0 13.3 80 2.0 NW 52 69 28 37 1006.4 1006.3 0.6
02/10:30pm 17.0 8.9 13.1 78 2.2 NW 48 70 26 38 1006.8 1006.7 0.6
02/10:23pm 17.0 8.5 13.1 78 2.2 NW 50 70 27 38 1006.9 1006.8 0.6
02/10:00pm 17.0 8.5 13.1 78 2.2 NW 50 65 27 35 1006.9 1006.8 0.6
02/09:52pm 16.9 8.0 13.0 78 2.2 NW 52 70 28 38 1006.9 1006.8 0.6
02/09:30pm 16.9 8.3 13.0 78 2.2 NW 50 67 27 36 1006.8 1006.7 0.6
02/09:00pm 16.8 8.3 13.1 79 2.1 NW 50 72 27 39 1007.1 1007.0 0.6
02/08:30pm 16.9 8.4 13.2 79 2.1 NW 50 72 27 39 1007.2 1007.1 0.6
02/08:00pm 16.8 9.7 13.3 80 2.0 NW 43 65 23 35 1007.3 1007.2 0.6
02/07:59pm 16.8 10.1 13.5 81 1.9 NW 41 65 22 35 1007.4 1007.3 0.6
02/07:30pm 16.6 9.4 13.1 80 2.0 NW 43 59 23 32 1007.9 1007.8 0.6
02/07:05pm 16.6 10.2 13.3 81 1.9 NW 39 59 21 32 1007.8 1007.7 0.4
02/07:00pm 16.5 9.8 13.4 82 1.7 NW 41 57 22 31 1007.8 1007.7 0.4
02/06:41pm 16.8 10.4 13.3 80 2.0 NW 39 61 21 33 1008.0 1007.9 0.4
02/06:30pm 16.8 10.1 13.3 80 2.0 NW 41 52 22 28 1007.9 1007.8 0.4
02/06:17pm 16.5 10.5 13.2 81 1.8 NW 37 54 20 29 1007.7 1007.6 0.4
02/06:00pm 16.2 12.5 13.9 86 1.3 NNW 26 32 14 17 1007.7 1007.6 0.4
02/05:39pm 16.0 10.6 12.7 81 1.8 NW 33 52 18 28 1007.6 1007.5 0.4
02/05:30pm 16.4 9.4 12.6 78 2.1 NW 41 57 22 31 1007.5 1007.4 0.4
02/05:12pm 17.1 10.8 13.6 80 2.0 NW 39 57 21 31 1007.6 1007.5 0.4
02/05:00pm 17.7 12.0 13.0 74 2.6 NW 35 48 19 26 1007.4 1007.3 0.4
02/04:30pm 17.5 11.4 13.0 75 2.5 NW 37 56 20 30 1007.6 1007.5 0.4
02/04:15pm 17.1 11.3 13.8 81 1.9 NW 37 57 20 31 1007.6 1007.5 0.4
02/04:00pm 17.7 10.5 13.0 74 2.6 NW 43 57 23 31 1007.8 1007.7 0.4
02/03:30pm 17.9 8.3 12.1 69 3.2 NW 54 74 29 40 1008.0 1007.9 0.4
02/03:20pm 18.5 10.2 12.5 68 3.4 NW 48 70 26 38 1008.1 1008.0 0.4
02/03:00pm 18.6 11.2 13.2 71 3.1 NW 44 57 24 31 1008.4 1008.3 0.4
02/02:32pm 17.7 10.3 12.4 71 2.9 NW 43 61 23 33 1008.3 1008.2 0.4
02/02:30pm 18.3 11.1 13.2 72 2.9 NW 43 59 23 32 1008.4 1008.3 0.4
02/02:19pm 17.5 11.3 12.8 74 2.6 NW 37 63 20 34 1008.5 1008.4 0.4
02/02:00pm 16.2 8.6 12.4 78 2.1 NW 44 57 24 31 1008.9 1008.8 0.2
02/01:30pm 18.0 9.3 12.7 71 3.0 NW 50 65 27 35 1008.8 1008.7 0.2
02/01:00pm 18.2 9.6 12.9 71 3.0 NW 50 70 27 38 1009.3 1009.2 0.2
02/12:44pm 17.6 9.5 11.9 69 3.1 NW 46 65 25 35 1009.5 1009.4 0.2
02/12:30pm 17.8 9.9 12.7 72 2.9 NNW 46 65 25 35 1009.6 1009.5 0.2
02/12:00pm 17.3 8.9 12.2 72 2.8 NW 48 69 26 37 1009.9 1009.8 0.2
02/11:30am 17.6 10.0 12.5 72 2.8 NW 44 65 24 35 1010.2 1010.1 0.2
02/11:11am 17.3 10.2 12.2 72 2.8 NW 41 69 22 37 1010.6 1010.6 0.2
02/11:00am 17.1 9.2 12.6 75 2.5 NW 46 57 25 31 1010.8 1010.8 0.2
02/10:39am 16.9 9.4 12.0 73 2.7 NW 43 61 23 33 1010.9 1010.9 0.2
02/10:30am 16.5 9.1 11.2 71 2.9 NW 41 57 22 31 1011.0 1011.0 0.2
02/10:28am 16.4 9.7 11.1 71 2.9 NW 37 57 20 31 1011.0 1011.0 0.2
02/10:00am 14.7 10.6 12.7 88 1.1 NW 26 35 14 19 1011.6 1011.6 0.2
02/09:30am 13.9 7.9 10.9 82 1.6 NW 33 46 18 25 1012.0 1012.0 0.2
02/09:00am 15.2 9.2 12.0 81 1.7 NW 35 50 19 27 1011.7 1011.7 2.0
02/08:30am 14.6 9.9 12.1 85 1.4 NW 28 39 15 21 1012.0 1012.0 2.0
02/08:00am 13.9 9.5 11.6 86 1.2 NW 26 33 14 18 1012.1 1012.1 1.4
02/07:30am 13.4 8.1 11.3 87 1.1 NW 30 43 16 23 1011.9 1011.9 0.4
02/07:00am 13.9 6.8 10.9 82 1.6 NW 39 54 21 29 1011.9 1011.9 0.2
02/06:53am 15.1 8.4 9.7 70 2.8 NW 35 54 19 29 1011.9 1011.9 0.2
02/06:30am 15.1 8.3 9.2 68 3.0 NW 35 44 19 24 1011.7 1011.7 0.2
02/06:00am 14.6 9.4 9.0 69 2.9 NW 26 37 14 20 1012.0 1012.0 0.2
02/05:30am 14.4 9.5 8.6 68 2.9 NW 24 37 13 20 1012.2 1012.2 0.2
02/05:00am 14.5 10.0 8.7 68 2.9 NW 22 30 12 16 1012.5 1012.5 0.2
02/04:30am 14.3 7.9 8.7 69 2.8 NW 32 41 17 22 1012.6 1012.6 0.2
02/04:00am 13.9 8.4 7.7 66 3.1 NW 26 35 14 19 1012.5 1012.5 0.2
02/03:30am 13.1 9.1 9.0 76 2.1 NW 20 24 11 13 1013.1 1013.1 0.2
02/03:00am 13.2 8.0 8.9 75 2.2 WNW 26 33 14 18 1013.2 1013.2 0.2
02/02:30am 13.9 10.0 8.5 70 2.7 WNW 19 26 10 14 1013.8 1013.8 0.2
02/02:00am 13.6 9.3 7.8 68 2.9 WNW 20 26 11 14 1014.1 1014.1 0.2
02/01:30am 13.7 9.0 7.7 67 3.0 WNW 22 28 12 15 1014.6 1014.6 0.2

Other Formats:

Comma delimited format used in spreadsheet applications
http://www.bom.gov.au/fwo/IDS60801/IDS60801.94822.axf

JavaScript Object Notation format (JSON) in row-major order
http://www.bom.gov.au/fwo/IDS60801/IDS60801.94822.json